createdAt,value
2022-12-22T00:01:22.192Z,18.70
2022-12-22T00:04:08.859Z,19.10
2022-12-22T00:06:55.327Z,19.10
2022-12-22T00:09:41.344Z,18.55
2022-12-22T00:12:30.358Z,15.30
2022-12-22T00:15:17.504Z,14.73
2022-12-22T00:18:03.649Z,14.90
2022-12-22T00:20:49.696Z,15.35
2022-12-22T00:23:35.719Z,15.50
2022-12-22T00:26:21.807Z,15.60
2022-12-22T00:29:08.343Z,17.98
2022-12-22T00:31:54.533Z,19.10
2022-12-22T00:34:41.589Z,20.27
2022-12-22T00:37:31.863Z,17.85
2022-12-22T00:40:20.040Z,17.77
2022-12-22T00:43:06.124Z,17.73
2022-12-22T00:45:52.443Z,18.05
2022-12-22T00:48:44.213Z,17.17
2022-12-22T00:51:31.443Z,17.10
2022-12-22T00:54:17.554Z,16.98
2022-12-22T00:57:03.794Z,17.80
2022-12-22T00:59:50.291Z,17.00
2022-12-22T01:02:36.995Z,16.98
2022-12-22T01:05:23.186Z,18.48
2022-12-22T01:08:09.464Z,19.10
2022-12-22T01:10:55.722Z,20.42
2022-12-22T01:13:42.496Z,18.88
2022-12-22T01:16:35.288Z,18.92
2022-12-22T01:19:22.086Z,21.05
2022-12-22T01:22:08.231Z,20.05
2022-12-22T01:24:54.696Z,19.48
2022-12-22T01:27:40.693Z,18.83
2022-12-22T01:30:28.042Z,22.13
2022-12-22T01:33:14.127Z,26.90
2022-12-22T01:36:00.191Z,18.80
2022-12-22T01:38:46.452Z,18.20
2022-12-22T01:41:36.952Z,22.85
2022-12-22T01:44:34.664Z,20.10
2022-12-22T01:47:48.606Z,13.57
2022-12-22T01:50:42.567Z,13.55
2022-12-22T01:53:34.281Z,16.92
2022-12-22T01:56:21.283Z,16.40
2022-12-22T01:59:12.626Z,17.98
2022-12-22T02:02:00.571Z,19.00
2022-12-22T02:04:58.572Z,15.32
2022-12-22T02:08:06.744Z,15.85
2022-12-22T02:11:41.177Z,14.90
2022-12-22T02:14:39.258Z,14.25
2022-12-22T02:17:40.086Z,13.82
2022-12-22T02:20:54.272Z,15.90
2022-12-22T02:23:46.332Z,14.30
2022-12-22T02:26:55.197Z,14.63
2022-12-22T02:29:47.938Z,16.20
2022-12-22T02:32:34.299Z,14.57
2022-12-22T02:35:20.348Z,15.70
2022-12-22T02:38:19.952Z,14.70
2022-12-22T02:41:24.999Z,15.45
2022-12-22T02:44:35.672Z,14.23
2022-12-22T02:47:30.832Z,14.82
2022-12-22T02:50:22.986Z,15.18
2022-12-22T02:53:10.547Z,16.33
2022-12-22T02:55:56.652Z,16.77
2022-12-22T02:58:44.121Z,16.50
2022-12-22T03:01:30.252Z,16.95
2022-12-22T03:04:16.533Z,16.88
2022-12-22T03:07:02.921Z,15.77
2022-12-22T03:09:49.199Z,16.08
2022-12-22T03:12:35.202Z,17.83
2022-12-22T03:15:21.279Z,18.85
2022-12-22T03:18:07.327Z,20.52
2022-12-22T03:20:53.713Z,18.98
2022-12-22T03:23:40.152Z,17.17
2022-12-22T03:26:07.694Z,22.60
2022-12-22T03:28:35.309Z,21.10
2022-12-22T03:31:06.079Z,20.75
2022-12-22T03:33:34.028Z,18.35
2022-12-22T03:36:02.153Z,18.27
2022-12-22T03:38:29.744Z,18.40
2022-12-22T03:40:57.584Z,19.20
2022-12-22T03:43:43.985Z,19.13
2022-12-22T03:46:32.200Z,19.60
2022-12-22T03:49:10.302Z,18.08
2022-12-22T03:51:49.742Z,17.95
2022-12-22T03:54:20.521Z,18.30
2022-12-22T03:56:48.262Z,17.58
2022-12-22T03:59:16.647Z,15.98
2022-12-22T04:01:46.947Z,14.43
2022-12-22T04:04:16.069Z,15.07
2022-12-22T04:06:43.741Z,14.32
2022-12-22T04:09:11.471Z,14.65
2022-12-22T04:11:57.612Z,16.10
2022-12-22T04:14:31.353Z,18.83
2022-12-22T04:17:01.408Z,19.83
2022-12-22T04:19:29.131Z,17.08
2022-12-22T04:21:56.660Z,17.73
2022-12-22T04:24:24.419Z,17.67
2022-12-22T04:26:52.487Z,17.40
2022-12-22T04:29:20.226Z,19.42
2022-12-22T04:31:48.069Z,17.23
2022-12-22T04:34:15.722Z,18.20
2022-12-22T04:36:43.346Z,18.10
2022-12-22T04:39:10.893Z,17.35
2022-12-22T04:41:38.428Z,14.55
2022-12-22T04:44:06.198Z,16.02
2022-12-22T04:46:33.814Z,16.00
2022-12-22T04:49:01.395Z,14.68
2022-12-22T04:51:29.090Z,16.65
2022-12-22T04:53:56.714Z,15.32
2022-12-22T04:56:24.319Z,15.18
2022-12-22T04:58:51.835Z,17.08
2022-12-22T05:01:19.955Z,14.93
2022-12-22T05:03:48.071Z,16.27
2022-12-22T05:06:15.700Z,17.83
2022-12-22T05:08:43.344Z,15.13
2022-12-22T05:11:11.308Z,15.25
2022-12-22T05:13:38.905Z,15.02
2022-12-22T05:16:12.549Z,14.90
2022-12-22T05:18:41.424Z,12.93
2022-12-22T05:21:13.881Z,16.02
2022-12-22T05:23:42.002Z,15.85
2022-12-22T05:26:13.451Z,16.27
2022-12-22T05:28:42.385Z,17.83
2022-12-22T05:31:21.191Z,16.42
2022-12-22T05:33:49.970Z,17.42
2022-12-22T05:36:17.801Z,16.60
2022-12-22T05:38:45.623Z,18.60
2022-12-22T05:41:13.965Z,16.38
2022-12-22T05:43:41.579Z,18.52
2022-12-22T05:46:11.165Z,19.30
2022-12-22T05:48:39.964Z,24.33
2022-12-22T05:51:09.463Z,22.48
2022-12-22T05:53:37.976Z,20.05
2022-12-22T05:56:06.400Z,19.75
2022-12-22T05:58:35.226Z,19.92
2022-12-22T06:01:02.925Z,22.70
2022-12-22T06:03:31.132Z,22.83
2022-12-22T06:05:59.561Z,21.95
2022-12-22T06:08:27.961Z,18.73
2022-12-22T06:10:59.444Z,20.45
2022-12-22T06:13:27.290Z,17.83
2022-12-22T06:15:54.874Z,17.20
2022-12-22T06:18:22.540Z,21.80
2022-12-22T06:20:53.772Z,26.83
2022-12-22T06:23:22.094Z,29.08
2022-12-22T06:26:01.237Z,22.20
2022-12-22T06:28:29.072Z,19.90
2022-12-22T06:30:56.791Z,20.40
2022-12-22T06:33:24.515Z,19.55
2022-12-22T06:35:58.126Z,20.70
2022-12-22T06:38:28.013Z,18.48
2022-12-22T06:40:55.646Z,18.77
2022-12-22T06:43:23.182Z,21.83
2022-12-22T06:45:50.820Z,20.15
2022-12-22T06:48:18.535Z,23.17
2022-12-22T06:50:47.970Z,23.33
2022-12-22T06:53:15.964Z,24.65
2022-12-22T06:55:43.533Z,24.80
2022-12-22T06:58:11.160Z,30.45
2022-12-22T07:00:38.787Z,21.52
2022-12-22T07:03:06.740Z,26.77
2022-12-22T07:05:34.747Z,26.65
2022-12-22T07:08:08.076Z,21.65
2022-12-22T07:10:55.510Z,25.63
2022-12-22T07:13:24.329Z,18.73
2022-12-22T07:16:00.229Z,22.20
2022-12-22T07:18:31.078Z,24.27
2022-12-22T07:21:01.400Z,17.60
2022-12-22T07:23:29.334Z,17.33
2022-12-22T07:25:57.561Z,16.10
2022-12-22T07:28:25.422Z,17.35
2022-12-22T07:30:54.607Z,22.15
2022-12-22T07:33:23.009Z,26.88
2022-12-22T07:36:20.880Z,23.52
2022-12-22T07:38:50.852Z,18.25
2022-12-22T07:41:38.845Z,18.13
2022-12-22T07:44:08.238Z,20.83
2022-12-22T07:46:38.255Z,21.77
2022-12-22T07:49:25.618Z,19.95
2022-12-22T07:51:55.693Z,21.45
2022-12-22T07:54:23.294Z,23.08
2022-12-22T07:56:50.926Z,29.65
2022-12-22T07:59:18.772Z,41.17
2022-12-22T08:01:47.579Z,39.45
2022-12-22T08:04:15.651Z,37.17
2022-12-22T08:06:43.429Z,32.90
2022-12-22T08:09:15.345Z,30.50
2022-12-22T08:11:43.344Z,29.60
2022-12-22T08:14:10.924Z,24.45
2022-12-22T08:16:38.552Z,18.05
2022-12-22T08:19:06.249Z,18.80
2022-12-22T08:21:33.752Z,18.90
2022-12-22T08:24:01.319Z,23.17
2022-12-22T08:26:36.983Z,18.42
2022-12-22T08:29:16.931Z,16.60
2022-12-22T08:31:44.740Z,15.95
2022-12-22T08:34:15.310Z,14.73
2022-12-22T08:36:50.342Z,16.02
2022-12-22T08:39:20.863Z,16.42
2022-12-22T08:41:51.466Z,15.18
2022-12-22T08:44:22.305Z,16.40
2022-12-22T08:46:51.157Z,14.85
2022-12-22T08:49:19.560Z,15.02
2022-12-22T08:51:48.095Z,17.45
2022-12-22T08:54:16.071Z,14.80
2022-12-22T08:56:44.553Z,15.43
2022-12-22T08:59:12.995Z,16.60
2022-12-22T09:01:44.521Z,18.98
2022-12-22T09:04:14.096Z,19.27
2022-12-22T09:06:41.713Z,17.65
2022-12-22T09:09:12.768Z,14.57
2022-12-22T09:11:41.052Z,15.85
2022-12-22T09:14:10.023Z,13.50
2022-12-22T09:16:38.506Z,32.45
2022-12-22T09:19:06.962Z,36.45
2022-12-22T09:21:35.794Z,16.08
2022-12-22T09:24:04.949Z,14.70
2022-12-22T09:26:32.702Z,13.20
2022-12-22T09:29:00.240Z,14.73
2022-12-22T09:31:29.238Z,17.80
2022-12-22T09:33:57.607Z,31.58
2022-12-22T09:36:29.550Z,23.10
2022-12-22T09:38:57.300Z,21.63
2022-12-22T09:41:32.225Z,18.48
2022-12-22T09:44:14.164Z,40.03
2022-12-22T09:46:42.445Z,22.13
2022-12-22T09:49:15.686Z,19.70
2022-12-22T09:52:39.051Z,19.25
2022-12-22T09:55:16.664Z,16.48
2022-12-22T09:57:45.016Z,17.27
2022-12-22T10:00:15.704Z,15.48
2022-12-22T10:02:55.446Z,15.05
2022-12-22T10:05:31.297Z,17.58
2022-12-22T10:08:09.457Z,19.48
2022-12-22T10:10:37.476Z,20.52
2022-12-22T10:13:06.590Z,20.65
2022-12-22T10:15:39.996Z,16.92
2022-12-22T10:18:16.617Z,16.55
2022-12-22T10:21:13.957Z,15.98
2022-12-22T10:23:45.801Z,16.63
2022-12-22T10:26:27.857Z,15.73
2022-12-22T10:29:00.579Z,16.25
2022-12-22T10:31:32.562Z,14.10
2022-12-22T10:34:17.568Z,14.32
2022-12-22T10:36:49.901Z,13.68
2022-12-22T10:39:23.604Z,15.13
2022-12-22T10:41:55.283Z,14.85
2022-12-22T10:44:27.256Z,12.23
2022-12-22T10:46:57.879Z,14.23
2022-12-22T10:49:28.166Z,15.27
2022-12-22T10:52:15.322Z,15.35
2022-12-22T10:54:45.053Z,13.13
2022-12-22T10:57:15.535Z,15.73
2022-12-22T10:59:55.051Z,15.13
2022-12-22T11:02:23.019Z,19.98
2022-12-22T11:04:52.208Z,21.65
2022-12-22T11:07:20.738Z,17.48
2022-12-22T11:09:48.758Z,17.30
2022-12-22T11:12:38.165Z,19.25
2022-12-22T11:15:37.255Z,21.05
2022-12-22T11:18:20.772Z,16.45
2022-12-22T11:21:01.432Z,14.95
2022-12-22T11:23:33.790Z,26.00
2022-12-22T11:26:11.660Z,21.55
2022-12-22T11:28:42.977Z,22.10
2022-12-22T11:31:22.841Z,20.75
2022-12-22T11:34:02.137Z,19.42
2022-12-22T11:36:57.921Z,20.50
2022-12-22T11:39:57.520Z,18.48
2022-12-22T11:43:11.107Z,18.30
2022-12-22T11:45:55.507Z,24.55
2022-12-22T11:48:29.222Z,19.55
2022-12-22T11:51:09.708Z,17.88
2022-12-22T11:54:12.432Z,18.83
2022-12-22T11:56:47.049Z,17.48
2022-12-22T11:59:42.207Z,18.42
2022-12-22T12:02:48.092Z,19.33
2022-12-22T12:05:44.057Z,18.02
2022-12-22T12:08:23.110Z,19.77
2022-12-22T12:11:11.501Z,20.75
2022-12-22T12:13:54.263Z,23.08
2022-12-22T12:16:34.060Z,20.02
2022-12-22T12:19:40.708Z,19.70
2022-12-22T12:22:39.346Z,18.85
2022-12-22T12:25:30.339Z,18.95
2022-12-22T12:28:21.405Z,19.30
2022-12-22T12:31:01.682Z,19.13
2022-12-22T12:33:54.577Z,21.52
2022-12-22T12:36:31.366Z,20.70
2022-12-22T12:39:19.013Z,21.67
2022-12-22T12:42:17.022Z,26.58
2022-12-22T12:44:46.041Z,24.63
2022-12-22T12:47:26.650Z,24.77
2022-12-22T12:49:59.868Z,27.17
2022-12-22T12:52:48.867Z,27.10
2022-12-22T12:55:33.608Z,30.80
2022-12-22T12:58:04.314Z,24.60
2022-12-22T13:00:34.932Z,48.72
2022-12-22T13:03:04.571Z,31.58
2022-12-22T13:05:51.774Z,30.02
2022-12-22T13:08:20.787Z,26.80
2022-12-22T13:11:08.628Z,26.58
2022-12-22T13:13:36.215Z,24.25
2022-12-22T13:16:04.342Z,26.10
2022-12-22T13:18:34.760Z,26.75
2022-12-22T13:21:50.997Z,22.73
2022-12-22T13:24:23.708Z,21.88
2022-12-22T13:26:45.584Z,21.83
2022-12-22T13:29:22.140Z,35.15
2022-12-22T13:32:14.413Z,25.10
2022-12-22T13:37:59.716Z,26.38
2022-12-22T13:40:44.212Z,24.40
2022-12-22T13:43:19.599Z,22.88
2022-12-22T13:45:50.762Z,26.50
2022-12-22T13:48:21.967Z,23.95
2022-12-22T13:51:21.402Z,24.92
2022-12-22T13:54:12.932Z,24.50
2022-12-22T13:56:52.222Z,25.55
2022-12-22T13:59:35.403Z,30.25
2022-12-22T14:02:09.218Z,26.33
2022-12-22T14:04:38.801Z,28.52
2022-12-22T14:07:20.447Z,26.00
2022-12-22T14:09:50.883Z,28.00
2022-12-22T14:12:20.561Z,29.13
2022-12-22T14:14:50.710Z,26.88
2022-12-22T14:17:30.957Z,30.02
2022-12-22T14:20:36.466Z,27.25
2022-12-22T14:23:24.745Z,37.78
2022-12-22T14:25:55.345Z,29.17
2022-12-22T14:28:24.360Z,28.35
2022-12-22T14:30:56.069Z,30.50
2022-12-22T14:33:31.985Z,31.50
2022-12-22T14:36:23.942Z,31.45
2022-12-22T14:38:55.557Z,33.00
2022-12-22T14:41:41.522Z,39.97
2022-12-22T14:44:16.573Z,35.22
2022-12-22T14:46:45.420Z,30.15
2022-12-22T14:49:19.354Z,31.92
2022-12-22T14:52:01.044Z,29.70
2022-12-22T14:54:29.404Z,27.70
2022-12-22T14:57:07.288Z,28.83
2022-12-22T14:59:39.145Z,29.50
2022-12-22T15:02:23.787Z,25.75
2022-12-22T15:05:09.326Z,27.38
2022-12-22T15:08:08.525Z,28.25
2022-12-22T15:10:44.417Z,24.73
2022-12-22T15:13:23.848Z,25.58
2022-12-22T15:15:52.657Z,24.05
2022-12-22T15:18:26.061Z,26.48
2022-12-22T15:20:55.883Z,27.27
2022-12-22T15:23:23.701Z,28.85
2022-12-22T15:25:51.358Z,25.90
2022-12-22T15:28:18.872Z,25.70
2022-12-22T15:30:46.625Z,26.65
2022-12-22T15:33:18.539Z,26.83
2022-12-22T15:35:46.791Z,28.47
2022-12-22T15:38:17.378Z,28.30
2022-12-22T15:40:45.308Z,29.35
2022-12-22T15:43:53.940Z,29.38
2022-12-22T15:46:04.291Z,28.20
2022-12-22T15:48:35.454Z,27.83
2022-12-22T15:51:04.319Z,29.58
2022-12-22T15:53:33.635Z,26.52
2022-12-22T15:56:01.737Z,28.27
2022-12-22T15:58:35.404Z,26.90
2022-12-22T16:01:03.184Z,28.20
2022-12-22T16:03:30.869Z,27.42
2022-12-22T16:05:58.816Z,26.13
2022-12-22T16:08:30.206Z,28.15
2022-12-22T16:10:58.444Z,26.48
2022-12-22T16:13:27.343Z,26.95
2022-12-22T16:15:57.892Z,40.28
2022-12-22T16:18:25.896Z,36.80
2022-12-22T16:20:55.430Z,41.13
2022-12-22T16:23:25.930Z,39.95
2022-12-22T16:26:01.306Z,39.28
2022-12-22T16:28:30.229Z,38.85
2022-12-22T16:30:58.651Z,37.45
2022-12-22T16:33:26.495Z,34.78
2022-12-22T16:35:54.204Z,38.35
2022-12-22T16:38:21.885Z,39.95
2022-12-22T16:40:51.975Z,41.53
2022-12-22T16:46:16.431Z,32.55
2022-12-22T16:48:59.533Z,33.70
2022-12-22T16:54:02.463Z,32.47
2022-12-22T16:56:31.551Z,36.97
2022-12-22T16:59:00.996Z,42.40
2022-12-22T17:01:29.555Z,37.72
2022-12-22T17:04:00.934Z,36.63
2022-12-22T17:06:28.593Z,39.88
2022-12-22T17:08:56.457Z,39.30
2022-12-22T17:11:27.524Z,35.88
2022-12-22T17:14:15.056Z,31.38
2022-12-22T17:16:42.816Z,32.22
2022-12-22T17:19:11.754Z,33.42
2022-12-22T17:21:39.368Z,32.38
2022-12-22T17:24:07.307Z,30.60
2022-12-22T17:26:36.756Z,28.95
2022-12-22T17:29:04.819Z,31.52
2022-12-22T17:31:32.560Z,30.55
2022-12-22T17:34:00.227Z,37.28
2022-12-22T17:36:37.256Z,41.83
2022-12-22T17:39:05.324Z,41.40
2022-12-22T17:41:33.248Z,50.55
2022-12-22T17:44:00.936Z,45.03
2022-12-22T17:46:29.225Z,40.17
2022-12-22T17:48:56.996Z,37.80
2022-12-22T17:51:29.685Z,34.38
2022-12-22T17:53:58.909Z,34.80
2022-12-22T17:56:27.806Z,34.38
2022-12-22T17:58:55.543Z,33.05
2022-12-22T18:01:37.155Z,32.85
2022-12-22T18:04:05.207Z,31.35
2022-12-22T18:06:35.495Z,30.10
2022-12-22T18:09:07.502Z,32.20
2022-12-22T18:11:39.116Z,36.08
2022-12-22T18:14:13.089Z,30.08
2022-12-22T18:16:40.807Z,30.08
2022-12-22T18:19:08.527Z,33.47
2022-12-22T18:21:36.566Z,31.10
2022-12-22T18:24:04.860Z,30.85
2022-12-22T18:26:32.948Z,32.95
2022-12-22T18:29:01.916Z,31.70
2022-12-22T18:31:29.879Z,36.83
2022-12-22T18:33:58.196Z,35.05
2022-12-22T18:36:32.907Z,34.30
2022-12-22T18:39:02.410Z,35.55
2022-12-22T18:41:35.401Z,37.17
2022-12-22T18:44:03.139Z,39.55
2022-12-22T18:46:30.851Z,45.65
2022-12-22T18:49:03.647Z,42.20
2022-12-22T18:51:33.315Z,43.00
2022-12-22T18:54:01.054Z,52.63
2022-12-22T18:56:28.948Z,54.92
2022-12-22T18:58:56.634Z,54.50
2022-12-22T19:01:26.820Z,53.63
2022-12-22T19:03:57.394Z,51.35
2022-12-22T19:06:25.617Z,51.03
2022-12-22T19:08:53.293Z,44.85
2022-12-22T19:11:25.535Z,40.83
2022-12-22T19:13:55.482Z,41.28
2022-12-22T19:16:27.166Z,36.58
2022-12-22T19:18:57.204Z,32.25
2022-12-22T19:21:25.029Z,46.97
2022-12-22T19:23:52.870Z,37.55
2022-12-22T19:26:24.344Z,33.88
2022-12-22T19:28:56.806Z,29.35
2022-12-22T19:31:31.060Z,31.10
2022-12-22T19:34:03.026Z,28.42
2022-12-22T19:36:32.077Z,28.75
2022-12-22T19:39:04.693Z,26.40
2022-12-22T19:41:44.787Z,34.40
2022-12-22T19:44:23.438Z,33.83
2022-12-22T19:46:53.248Z,34.08
2022-12-22T19:49:24.825Z,47.22
2022-12-22T19:51:52.483Z,42.17
2022-12-22T19:54:20.596Z,35.72
2022-12-22T19:56:52.648Z,38.45
2022-12-22T19:59:40.112Z,38.53
2022-12-22T20:02:30.323Z,40.65
2022-12-22T20:05:00.145Z,35.42
2022-12-22T20:07:30.081Z,37.70
2022-12-22T20:09:58.042Z,39.78
2022-12-22T20:12:29.287Z,40.55
2022-12-22T20:14:58.273Z,36.90
2022-12-22T20:17:27.129Z,37.40
2022-12-22T20:19:54.928Z,36.35
2022-12-22T20:22:23.578Z,37.72
2022-12-22T20:24:51.903Z,36.45
2022-12-22T20:27:29.827Z,38.40
2022-12-22T20:29:58.190Z,37.03
2022-12-22T20:32:28.299Z,39.63
2022-12-22T20:34:56.703Z,35.00
2022-12-22T20:37:25.768Z,36.00
2022-12-22T20:39:53.794Z,34.53
2022-12-22T20:42:25.122Z,33.30
2022-12-22T20:45:03.967Z,44.05
2022-12-22T20:47:36.465Z,38.60
2022-12-22T20:50:28.568Z,35.40
2022-12-22T20:52:57.444Z,34.45
2022-12-22T20:55:28.027Z,34.90
2022-12-22T20:57:56.416Z,31.45
2022-12-22T21:00:26.998Z,32.72
2022-12-22T21:02:55.264Z,37.60
2022-12-22T21:05:23.206Z,31.63
2022-12-22T21:07:50.987Z,30.70
2022-12-22T21:10:22.194Z,31.30
2022-12-22T21:12:50.406Z,29.83
2022-12-22T21:15:20.568Z,29.63
2022-12-22T21:17:55.974Z,32.60
2022-12-22T21:20:29.136Z,33.03
2022-12-22T21:22:56.766Z,33.47
2022-12-22T21:25:24.869Z,33.38
2022-12-22T21:27:52.748Z,39.85
2022-12-22T21:30:26.465Z,43.42
2022-12-22T21:32:54.875Z,37.78
2022-12-22T21:35:26.340Z,39.08
2022-12-22T21:37:55.142Z,42.40
2022-12-22T21:40:28.286Z,38.40
2022-12-22T21:42:56.814Z,38.85
2022-12-22T21:45:31.871Z,37.00
2022-12-22T21:48:01.087Z,38.08
2022-12-22T21:50:31.437Z,39.10
2022-12-22T21:52:59.368Z,38.65
2022-12-22T21:55:30.651Z,38.55
2022-12-22T21:57:58.779Z,41.30
2022-12-22T22:00:28.562Z,38.58
2022-12-22T22:02:56.911Z,38.67
2022-12-22T22:05:45.307Z,44.42
2022-12-22T22:08:12.978Z,40.63
2022-12-22T22:10:43.253Z,40.85
2022-12-22T22:13:15.578Z,42.13
2022-12-22T22:15:44.072Z,42.33
2022-12-22T22:18:16.617Z,35.78
2022-12-22T22:20:44.485Z,30.95
2022-12-22T22:23:14.363Z,34.13
2022-12-22T22:25:42.113Z,31.77
2022-12-22T22:28:11.585Z,39.83
2022-12-22T22:30:41.601Z,31.98
2022-12-22T22:33:10.620Z,30.88
2022-12-22T22:35:39.938Z,30.13
2022-12-22T22:38:11.811Z,30.52
2022-12-22T22:40:42.189Z,31.20
2022-12-22T22:43:10.046Z,30.27
2022-12-22T22:45:38.818Z,33.38
2022-12-22T22:48:10.816Z,28.77
2022-12-22T22:50:41.052Z,30.58
2022-12-22T22:53:08.732Z,30.20
2022-12-22T22:55:36.246Z,29.95
2022-12-22T22:58:04.013Z,30.52
2022-12-22T23:00:31.870Z,36.67
2022-12-22T23:03:00.460Z,33.72
2022-12-22T23:05:28.402Z,35.65
2022-12-22T23:07:56.014Z,34.20
2022-12-22T23:10:23.644Z,36.17
2022-12-22T23:12:51.167Z,34.05
2022-12-22T23:15:19.019Z,32.25
2022-12-22T23:17:46.697Z,34.40
2022-12-22T23:20:14.373Z,34.67
2022-12-22T23:22:42.006Z,32.90
2022-12-22T23:25:09.719Z,29.67
2022-12-22T23:27:37.229Z,29.67
2022-12-22T23:30:05.221Z,30.00
2022-12-22T23:32:32.755Z,30.55
2022-12-22T23:35:00.429Z,28.77
2022-12-22T23:37:27.969Z,33.92
2022-12-22T23:39:56.165Z,31.17
2022-12-22T23:42:29.459Z,26.65
2022-12-22T23:44:57.056Z,29.23
2022-12-22T23:47:24.609Z,25.77
2022-12-22T23:49:52.190Z,27.02
2022-12-22T23:52:19.905Z,29.10
2022-12-22T23:54:47.405Z,27.80
2022-12-22T23:57:15.090Z,27.95
2022-12-22T23:59:42.685Z,27.67
